Time;durP1;ratioP1;P1;durP2;ratioP2;P2;SDS_P1;SDS_P2;PMS_P1;PMS_P2;Temp;Humidity;BMP_temperature;BMP_pressure;BME280_temperature;BME280_humidity;BME280_pressure;Samples;Min_cycle;Max_cycle;Signal;HPM_P1;HPM_P2
2023/08/02 00:02:04;;;;;;;13.03;12.63;;;18.30;1.00;;;;;;4964621;28;20467;-83
2023/08/02 00:04:32;;;;;;;13.00;12.60;;;18.30;1.00;;;;;;4967645;28;20489;-83
2023/08/02 00:07:02;;;;;;;12.50;12.10;;;18.30;1.00;;;;;;4948442;28;20557;-84
2023/08/02 00:09:31;;;;;;;12.80;12.33;;;18.30;1.00;;;;;;4962321;28;20652;-83
2023/08/02 00:12:07;;;;;;;12.60;12.30;;;18.40;1.00;;;;;;4945845;28;20479;-83
2023/08/02 00:14:37;;;;;;;12.53;11.93;;;18.30;1.00;;;;;;4967477;28;20522;-85
2023/08/02 00:17:30;;;;;;;12.50;12.10;;;18.30;1.00;;;;;;4966125;28;20482;-84
2023/08/02 00:19:59;;;;;;;12.93;12.53;;;18.30;1.00;;;;;;4964273;28;20478;-82
2023/08/02 00:22:54;;;;;;;12.90;12.40;;;18.30;1.00;;;;;;4963010;28;20520;-86
2023/08/02 00:25:23;;;;;;;12.30;11.93;;;18.20;1.00;;;;;;4963160;28;20459;-85
2023/08/02 00:27:54;;;;;;;12.20;11.90;;;18.10;1.00;;;;;;4966744;28;20547;-85
2023/08/02 00:30:24;;;;;;;12.47;12.00;;;18.10;1.00;;;;;;4969713;28;20482;-83
2023/08/02 00:32:59;;;;;;;12.33;11.93;;;18.20;1.00;;;;;;4953242;28;20502;-83
2023/08/02 00:35:31;;;;;;;12.50;12.10;;;18.10;1.00;;;;;;4969635;28;20553;-85
2023/08/02 00:38:03;;;;;;;12.20;11.80;;;18.10;1.00;;;;;;4966337;28;20469;-82
2023/08/02 00:40:32;;;;;;;12.40;12.10;;;18.10;1.00;;;;;;4968071;28;20491;-83
2023/08/02 00:43:00;;;;;;;12.47;12.17;;;18.10;1.00;;;;;;4967486;28;20479;-84
2023/08/02 00:45:31;;;;;;;12.73;12.33;;;18.00;1.00;;;;;;4969329;28;20467;-84
2023/08/02 00:48:00;;;;;;;12.30;12.00;;;18.00;1.00;;;;;;4968424;28;20459;-82
2023/08/02 00:50:31;;;;;;;12.53;12.13;;;18.00;6.30;;;;;;4970225;28;20479;-84
2023/08/02 00:53:00;;;;;;;13.10;12.63;;;18.00;1.00;;;;;;4965415;28;20474;-85
2023/08/02 00:55:29;;;;;;;13.07;12.60;;;17.90;11.30;;;;;;4971568;28;20546;-84
2023/08/02 00:57:58;;;;;;;13.30;12.90;;;17.80;1.00;;;;;;4969674;28;20474;-85
2023/08/02 01:00:27;;;;;;;13.03;12.73;;;17.80;58.40;;;;;;4954767;28;20459;-84
2023/08/02 01:02:58;;;;;;;12.77;12.47;;;17.80;99.90;;;;;;4969346;28;20897;-87
2023/08/02 01:05:33;;;;;;;12.90;12.50;;;17.80;26.30;;;;;;4969463;28;20502;-84
2023/08/02 01:08:05;;;;;;;13.23;12.70;;;17.80;90.10;;;;;;4969187;28;20455;-88
2023/08/02 01:10:39;;;;;;;12.40;12.10;;;17.70;99.90;;;;;;4955561;28;20458;-86
2023/08/02 01:13:11;;;;;;;13.20;12.73;;;17.70;99.90;;;;;;4968422;28;20478;-84
2023/08/02 01:15:39;;;;;;;13.70;12.83;;;17.70;99.90;;;;;;4968701;28;20463;-82
2023/08/02 01:18:09;;;;;;;13.13;12.70;;;17.70;99.90;;;;;;4972637;28;20455;-84
2023/08/02 01:20:39;;;;;;;12.90;12.57;;;17.70;99.90;;;;;;4982573;28;20513;-85
2023/08/02 01:23:08;;;;;;;12.97;12.57;;;17.60;99.90;;;;;;4981859;28;20467;-86
2023/08/02 01:25:45;;;;;;;13.63;13.00;;;17.50;99.90;;;;;;4975800;28;20777;-87
2023/08/02 01:28:21;;;;;;;13.07;12.67;;;17.50;99.90;;;;;;4981563;28;20483;-84
2023/08/02 01:30:52;;;;;;;12.87;12.27;;;17.50;99.90;;;;;;4980043;28;20488;-85
2023/08/02 01:33:22;;;;;;;13.30;12.90;;;17.60;99.90;;;;;;4976371;28;21013;-86
2023/08/02 01:35:52;;;;;;;13.40;12.90;;;17.50;99.90;;;;;;4966064;28;20585;-83
2023/08/02 01:38:20;;;;;;;13.80;13.30;;;17.60;99.90;;;;;;4948514;28;20518;-83
2023/08/02 01:40:49;;;;;;;13.60;13.20;;;17.50;99.90;;;;;;4968528;28;20621;-82
2023/08/02 01:43:17;;;;;;;13.27;12.87;;;17.60;99.90;;;;;;4950513;28;20487;-84
2023/08/02 01:45:50;;;;;;;13.47;12.87;;;17.50;99.90;;;;;;4968934;28;20498;-84
2023/08/02 01:48:19;;;;;;;13.87;13.27;;;17.50;99.90;;;;;;4967913;28;20770;-83
2023/08/02 01:50:47;;;;;;;13.30;12.90;;;17.50;99.90;;;;;;4952453;28;20473;-86
2023/08/02 01:53:16;;;;;;;13.77;13.17;;;17.50;99.90;;;;;;4971406;28;20511;-84
2023/08/02 01:55:47;;;;;;;13.23;12.73;;;17.40;99.90;;;;;;4972810;28;20787;-84
2023/08/02 01:58:18;;;;;;;13.40;13.00;;;17.30;99.90;;;;;;4969625;28;20549;-87
2023/08/02 02:00:47;;;;;;;13.40;13.00;;;17.30;1.00;;;;;;4950777;28;20510;-84
2023/08/02 02:03:15;;;;;;;13.10;12.70;;;17.30;99.90;;;;;;4960265;28;20490;-83
2023/08/02 02:05:52;;;;;;;13.23;12.83;;;17.40;99.90;;;;;;4970481;28;20470;-83
2023/08/02 02:08:23;;;;;;;13.40;13.00;;;17.40;99.90;;;;;;4970286;28;20458;-83
2023/08/02 02:10:51;;;;;;;13.10;12.70;;;17.40;99.90;;;;;;4969114;28;20987;-83
2023/08/02 02:13:22;;;;;;;13.57;13.17;;;17.30;99.90;;;;;;4970708;28;20574;-83
2023/08/02 02:15:50;;;;;;;12.87;12.47;;;17.30;99.90;;;;;;4969572;28;20466;-82
2023/08/02 02:18:19;;;;;;;12.67;12.30;;;17.30;99.90;;;;;;4972287;28;20458;-83
2023/08/02 02:20:47;;;;;;;13.17;12.77;;;17.20;1.00;;;;;;4954645;28;20462;-84
2023/08/02 02:23:15;;;;;;;13.20;12.80;;;17.30;99.90;;;;;;4970253;28;20911;-84
2023/08/02 02:25:45;;;;;;;13.30;12.90;;;17.20;99.90;;;;;;4970754;28;20533;-84
2023/08/02 02:28:13;;;;;;;13.37;12.87;;;17.20;99.90;;;;;;4968838;28;20462;-83
2023/08/02 02:30:43;;;;;;;12.60;12.30;;;17.20;99.90;;;;;;4969331;28;20462;-83
2023/08/02 02:33:11;;;;;;;12.70;12.30;;;17.20;99.90;;;;;;4969349;28;20554;-84
2023/08/02 02:35:39;;;;;;;13.10;12.47;;;17.20;99.90;;;;;;4949727;28;20486;-82
2023/08/02 02:38:08;;;;;;;12.57;12.17;;;17.20;1.00;;;;;;4967680;28;21050;-82
2023/08/02 02:40:36;;;;;;;13.03;12.63;;;17.20;99.90;;;;;;4966908;28;20458;-84
2023/08/02 02:43:05;;;;;;;12.80;12.40;;;17.20;99.90;;;;;;4967210;28;20478;-84
2023/08/02 02:45:34;;;;;;;13.50;13.03;;;17.20;99.90;;;;;;4963251;28;20478;-81
2023/08/02 02:48:02;;;;;;;12.93;12.60;;;17.10;99.90;;;;;;4970446;28;20489;-84
2023/08/02 02:50:31;;;;;;;13.60;13.10;;;17.10;99.90;;;;;;4945643;28;20463;-87
2023/08/02 02:52:59;;;;;;;12.70;12.30;;;17.20;99.90;;;;;;4967918;28;20497;-84
2023/08/02 02:55:28;;;;;;;12.90;12.47;;;17.20;99.90;;;;;;4966827;28;20557;-85
2023/08/02 02:57:56;;;;;;;12.33;12.03;;;17.20;99.90;;;;;;4967637;28;20553;-85
2023/08/02 03:00:27;;;;;;;12.60;12.20;;;17.20;99.90;;;;;;4965183;28;20466;-86
2023/08/02 03:02:55;;;;;;;12.60;12.30;;;17.30;99.90;;;;;;4950710;28;21006;-85
2023/08/02 03:05:24;;;;;;;12.77;12.27;;;17.30;99.90;;;;;;4967685;28;20519;-84
2023/08/02 03:07:52;;;;;;;12.50;12.20;;;17.30;99.90;;;;;;4968905;28;20459;-85
2023/08/02 03:10:20;;;;;;;12.90;12.50;;;17.30;99.90;;;;;;4966418;28;20470;-86
2023/08/02 03:12:49;;;;;;;12.70;12.30;;;17.20;99.90;;;;;;4967703;28;20894;-84
2023/08/02 03:15:17;;;;;;;12.93;12.53;;;17.20;99.90;;;;;;4964520;28;20555;-85
2023/08/02 03:17:47;;;;;;;12.80;12.50;;;17.30;99.90;;;;;;4968776;28;20463;-85
2023/08/02 03:20:15;;;;;;;13.27;12.90;;;17.20;99.90;;;;;;4967220;28;20489;-84
2023/08/02 03:22:44;;;;;;;12.50;12.10;;;17.30;99.90;;;;;;4966760;28;20463;-84
2023/08/02 03:25:12;;;;;;;13.40;12.73;;;17.30;99.90;;;;;;4967355;28;20464;-83
2023/08/02 03:27:40;;;;;;;13.27;12.90;;;17.30;99.90;;;;;;4968378;28;21138;-85
2023/08/02 03:30:09;;;;;;;13.40;13.00;;;17.30;99.90;;;;;;4963914;28;20461;-83
2023/08/02 03:32:37;;;;;;;13.67;13.30;;;17.40;99.90;;;;;;4946205;28;21082;-84
2023/08/02 03:35:08;;;;;;;13.27;12.77;;;17.40;99.90;;;;;;4968391;28;20530;-83
2023/08/02 03:37:36;;;;;;;13.17;12.77;;;17.40;99.90;;;;;;4967070;28;20462;-83
2023/08/02 03:40:08;;;;;;;12.67;12.37;;;17.40;99.90;;;;;;4951112;28;20467;-87
2023/08/02 03:42:36;;;;;;;13.03;12.73;;;17.40;99.90;;;;;;4966376;28;20462;-84
2023/08/02 03:45:05;;;;;;;12.80;12.50;;;17.40;99.90;;;;;;4965428;28;20467;-83
2023/08/02 03:47:33;;;;;;;13.47;13.10;;;17.30;99.90;;;;;;4968379;28;20454;-87
2023/08/02 03:50:02;;;;;;;13.70;13.30;;;17.30;99.90;;;;;;4949752;28;20845;-85
2023/08/02 03:52:31;;;;;;;13.10;12.70;;;17.20;99.90;;;;;;4951623;28;20502;-84
2023/08/02 03:55:00;;;;;;;13.10;12.80;;;17.30;99.90;;;;;;4967933;28;20466;-84
2023/08/02 03:57:28;;;;;;;13.40;13.10;;;17.30;99.90;;;;;;4950818;28;20514;-84
2023/08/02 03:59:56;;;;;;;13.80;13.30;;;17.20;99.90;;;;;;4968370;28;20492;-84
2023/08/02 04:02:24;;;;;;;14.20;13.23;;;17.20;99.90;;;;;;4967486;28;20899;-83
2023/08/02 04:04:53;;;;;;;13.20;12.70;;;17.20;99.90;;;;;;4971266;28;20490;-84
2023/08/02 04:07:22;;;;;;;13.13;12.70;;;17.10;99.90;;;;;;4971890;28;20474;-87
2023/08/02 04:09:51;;;;;;;13.53;13.03;;;17.10;1.00;;;;;;4972238;28;20493;-83
2023/08/02 04:12:20;;;;;;;13.80;13.37;;;17.10;99.90;;;;;;4954196;28;20477;-84
2023/08/02 04:14:48;;;;;;;13.63;13.23;;;17.20;1.00;;;;;;4973626;28;21082;-83
2023/08/02 04:17:16;;;;;;;13.87;13.47;;;17.20;1.00;;;;;;4967242;28;20588;-83
2023/08/02 04:19:44;;;;;;;14.30;13.73;;;17.20;1.00;;;;;;4971844;28;20455;-83
2023/08/02 04:22:12;;;;;;;13.60;13.20;;;17.30;99.90;;;;;;4971444;28;21122;-84
2023/08/02 04:24:41;;;;;;;13.60;13.20;;;17.30;99.90;;;;;;4973389;28;20473;-82
2023/08/02 04:27:10;;;;;;;14.10;13.63;;;17.30;99.90;;;;;;4974143;28;20478;-83
2023/08/02 04:29:38;;;;;;;13.73;13.33;;;17.10;1.00;;;;;;4973048;28;20455;-82
2023/08/02 04:32:07;;;;;;;14.20;13.70;;;17.00;1.00;;;;;;4974349;28;20537;-83
2023/08/02 04:34:36;;;;;;;14.73;14.23;;;17.10;1.00;;;;;;4965959;28;20765;-83
2023/08/02 04:37:04;;;;;;;14.53;14.03;;;17.10;99.90;;;;;;4973890;28;20453;-84
2023/08/02 04:39:33;;;;;;;14.67;14.17;;;17.00;99.90;;;;;;4953193;28;21354;-83
2023/08/02 04:42:01;;;;;;;15.17;14.53;;;16.90;1.00;;;;;;4967356;28;20701;-83
2023/08/02 04:44:31;;;;;;;14.83;14.20;;;17.00;90.40;;;;;;4970124;28;20490;-80
2023/08/02 04:46:59;;;;;;;14.30;13.80;;;17.00;99.90;;;;;;4971906;28;20501;-83
2023/08/02 04:49:27;;;;;;;14.10;13.70;;;16.90;1.00;;;;;;4974005;28;20462;-85
2023/08/02 04:51:55;;;;;;;15.10;14.33;;;16.90;99.90;;;;;;4969973;28;20529;-85
2023/08/02 04:54:24;;;;;;;15.00;14.40;;;16.90;99.90;;;;;;4969238;28;20490;-84
2023/08/02 04:56:52;;;;;;;14.73;14.20;;;17.00;1.00;;;;;;4968948;28;20464;-80
2023/08/02 04:59:20;;;;;;;14.33;13.83;;;16.90;1.00;;;;;;4969488;28;20545;-84
2023/08/02 05:01:50;;;;;;;14.93;14.43;;;16.80;99.90;;;;;;4966345;28;20466;-82
2023/08/02 05:04:20;;;;;;;14.80;14.30;;;16.80;1.00;;;;;;4970837;28;20481;-81
2023/08/02 05:06:48;;;;;;;15.90;15.30;;;16.90;99.90;;;;;;4967806;28;20714;-81
2023/08/02 05:09:17;;;;;;;15.23;14.73;;;16.90;15.10;;;;;;4967767;28;20466;-81
2023/08/02 05:11:45;;;;;;;15.43;14.80;;;16.80;99.90;;;;;;4970242;28;20467;-84
2023/08/02 05:14:14;;;;;;;15.73;15.23;;;16.80;1.00;;;;;;4970679;28;20530;-84
2023/08/02 05:16:42;;;;;;;15.90;15.30;;;16.80;99.90;;;;;;4963479;28;20556;-85
2023/08/02 05:19:11;;;;;;;16.00;15.40;;;16.80;1.00;;;;;;4968880;28;20552;-83
2023/08/02 05:21:40;;;;;;;15.77;15.20;;;16.90;99.90;;;;;;4967521;28;20563;-83
2023/08/02 05:24:08;;;;;;;16.37;15.87;;;16.80;99.90;;;;;;4968215;28;21068;-84
2023/08/02 05:26:37;;;;;;;15.50;15.07;;;16.80;99.90;;;;;;4970029;28;20520;-83
2023/08/02 05:29:05;;;;;;;15.90;15.30;;;16.80;1.00;;;;;;4948432;28;20465;-84
2023/08/02 05:31:33;;;;;;;16.17;15.60;;;16.80;1.00;;;;;;4965239;28;20524;-82
2023/08/02 05:34:05;;;;;;;15.57;15.07;;;16.70;99.90;;;;;;4967733;28;20473;-84
2023/08/02 05:36:35;;;;;;;16.90;16.37;;;16.70;99.90;;;;;;4968186;28;20521;-85
2023/08/02 05:39:03;;;;;;;16.03;15.53;;;16.80;99.90;;;;;;4950316;28;20485;-88
2023/08/02 05:41:32;;;;;;;16.33;15.63;;;16.70;22.90;;;;;;4967064;28;20480;-83
2023/08/02 05:44:00;;;;;;;16.53;15.90;;;16.70;99.90;;;;;;4966994;28;20501;-85
2023/08/02 05:46:33;;;;;;;16.40;15.80;;;16.80;99.90;;;;;;4963150;28;20459;-84
2023/08/02 05:49:01;;;;;;;16.80;15.80;;;16.70;1.00;;;;;;4950045;28;20501;-87
2023/08/02 05:51:29;;;;;;;15.90;15.10;;;16.70;1.00;;;;;;4970128;28;20999;-87
2023/08/02 05:54:02;;;;;;;16.10;15.50;;;16.70;99.90;;;;;;4970548;28;20540;-85
2023/08/02 05:56:30;;;;;;;17.13;16.10;;;16.70;51.40;;;;;;4966442;28;20537;-86
2023/08/02 05:58:59;;;;;;;16.70;16.00;;;16.60;99.90;;;;;;4964470;28;20520;-86
2023/08/02 06:01:30;;;;;;;16.33;15.70;;;16.70;99.90;;;;;;4968739;28;20455;-86
2023/08/02 06:04:08;;;;;;;16.27;15.67;;;16.70;99.90;;;;;;4961236;28;20511;-84
2023/08/02 06:06:36;;;;;;;16.53;15.83;;;16.70;99.90;;;;;;4965664;28;20459;-77
2023/08/02 06:09:06;;;;;;;17.30;16.40;;;16.80;1.00;;;;;;4962530;28;20485;-76
2023/08/02 06:11:37;;;;;;;17.07;16.37;;;16.70;99.90;;;;;;4964918;28;20462;-78
2023/08/02 06:14:05;;;;;;;16.33;15.73;;;16.80;99.90;;;;;;4969281;28;20480;-79
2023/08/02 06:16:33;;;;;;;17.60;16.77;;;16.80;99.90;;;;;;4961977;28;20940;-78
2023/08/02 06:19:02;;;;;;;17.90;17.10;;;16.80;1.00;;;;;;4966332;28;20325;-79
2023/08/02 06:21:30;;;;;;;17.00;16.30;;;16.90;99.90;;;;;;4962411;28;20994;-80
2023/08/02 06:23:58;;;;;;;17.07;16.47;;;16.90;99.90;;;;;;4944988;28;20568;-86
2023/08/02 06:26:28;;;;;;;17.43;16.57;;;16.90;99.90;;;;;;4968341;28;20470;-84
2023/08/02 06:28:56;;;;;;;18.33;17.47;;;17.00;99.90;;;;;;4965759;28;20494;-86
2023/08/02 06:31:25;;;;;;;17.40;16.80;;;17.00;99.90;;;;;;4953616;28;20625;-87
2023/08/02 06:33:53;;;;;;;17.30;16.57;;;17.00;99.90;;;;;;4964199;28;20508;-86
2023/08/02 06:36:21;;;;;;;17.50;16.70;;;16.90;99.90;;;;;;4963354;28;20458;-84
2023/08/02 06:38:50;;;;;;;17.53;16.83;;;16.90;99.90;;;;;;4965791;28;20508;-81
2023/08/02 06:41:18;;;;;;;17.10;16.40;;;16.90;1.00;;;;;;4963583;28;20481;-83
2023/08/02 06:43:48;;;;;;;17.87;17.07;;;17.00;1.00;;;;;;4953038;28;20491;-84
2023/08/02 06:46:16;;;;;;;18.37;17.20;;;17.00;1.00;;;;;;4963243;28;20462;-83
2023/08/02 06:48:48;;;;;;;18.00;17.20;;;17.00;1.00;;;;;;4969341;28;20472;-84
2023/08/02 06:51:32;;;;;;;17.33;16.60;;;17.00;1.00;;;;;;4968261;28;20469;-82
2023/08/02 06:54:03;;;;;;;16.80;16.17;;;16.90;1.00;;;;;;4967194;28;20481;-81
2023/08/02 06:56:31;;;;;;;16.87;16.17;;;16.90;1.00;;;;;;4959824;28;20589;-83
2023/08/02 06:59:18;;;;;;;16.93;16.23;;;16.90;1.00;;;;;;4962059;28;20489;-82
2023/08/02 07:01:47;;;;;;;17.83;16.73;;;16.90;1.00;;;;;;4962393;28;20470;-81
2023/08/02 07:04:15;;;;;;;16.77;16.17;;;16.80;1.00;;;;;;4965623;28;20482;-83
2023/08/02 07:06:43;;;;;;;17.03;16.43;;;16.90;1.00;;;;;;4961135;28;21153;-82
2023/08/02 07:09:18;;;;;;;16.80;16.10;;;16.90;1.00;;;;;;4954849;28;20476;-82
2023/08/02 07:11:49;;;;;;;17.40;16.70;;;16.90;1.00;;;;;;4957086;28;20466;-82
2023/08/02 07:14:19;;;;;;;17.20;16.50;;;16.80;1.00;;;;;;5086198;23;20527;-83
2023/08/02 07:16:49;;;;;;;17.50;16.80;;;16.80;1.00;;;;;;5008964;28;20460;-82
2023/08/02 07:19:28;;;;;;;18.17;17.20;;;17.00;1.00;;;;;;5010330;28;20550;-82
2023/08/02 07:22:07;;;;;;;17.00;16.20;;;16.90;1.00;;;;;;5009377;28;20456;-82
2023/08/02 07:24:40;;;;;;;17.87;17.07;;;17.00;1.00;;;;;;5009162;28;20474;-80
2023/08/02 07:27:17;;;;;;;17.37;16.67;;;16.90;1.00;;;;;;5005174;28;20464;-82
2023/08/02 07:30:06;;;;;;;17.90;17.10;;;16.90;1.00;;;;;;5007379;28;20456;-83
2023/08/02 07:43:38;;;;;;;;;;;;;;;;;;;;;
2023/08/02 07:47:24;;;;;;;17.93;16.97;;;17.00;1.00;;;;;;4928118;29;20524;-84
2023/08/02 07:50:15;;;;;;;17.57;16.57;;;17.10;1.00;;;;;;4929653;29;20462;-82
2023/08/02 08:04:42;;;;;;;17.67;16.87;;;17.10;1.00;;;;;;4880239;29;20457;-83
2023/08/02 08:07:14;;;;;;;17.30;16.60;;;17.20;1.00;;;;;;4886660;29;20490;-81
2023/08/02 08:10:48;;;;;;;17.33;16.43;;;17.30;1.00;;;;;;4873698;29;20566;-82
2023/08/02 08:17:44;;;;;;;17.03;16.30;;;17.30;1.00;;;;;;4871491;29;20526;-82
2023/08/02 08:24:36;;;;;;;16.73;16.10;;;17.20;11.50;;;;;;4873085;29;20651;-82
2023/08/02 08:27:35;;;;;;;17.40;16.60;;;17.20;10.50;;;;;;4882821;29;20549;-81
2023/08/02 08:34:56;;;;;;;16.63;15.93;;;17.20;21.50;;;;;;4882507;23;20559;-82
2023/08/02 08:55:13;;;;;;;16.30;15.70;;;17.30;23.90;;;;;;4907500;29;20484;-83
2023/08/02 08:58:13;;;;;;;17.00;16.30;;;17.30;23.60;;;;;;4909448;29;20544;-83
2023/08/02 09:00:50;;;;;;;16.87;16.20;;;17.30;43.80;;;;;;4905486;29;20979;-84
2023/08/02 09:03:26;;;;;;;17.23;16.43;;;17.30;48.90;;;;;;4905439;29;20508;-83
2023/08/02 09:05:59;;;;;;;16.70;16.10;;;17.40;27.00;;;;;;4904644;29;20460;-82
2023/08/02 09:08:27;;;;;;;17.23;16.47;;;17.40;40.00;;;;;;4908918;29;20473;-83
2023/08/02 09:10:56;;;;;;;16.73;15.93;;;17.40;31.80;;;;;;4905383;29;20460;-83
2023/08/02 09:13:27;;;;;;;17.23;16.53;;;17.40;25.10;;;;;;4907997;29;20591;-84
2023/08/02 09:16:09;;;;;;;16.53;15.83;;;17.40;31.40;;;;;;4902078;29;20608;-84
2023/08/02 09:18:40;;;;;;;16.80;16.10;;;17.60;39.40;;;;;;4903365;29;20508;-85
2023/08/02 09:21:11;;;;;;;17.33;16.53;;;17.60;31.40;;;;;;4906351;29;20474;-84
2023/08/02 09:23:39;;;;;;;16.90;16.10;;;17.70;36.30;;;;;;4906060;29;21055;-84
2023/08/02 09:26:15;;;;;;;16.83;16.03;;;17.70;19.00;;;;;;4905075;29;21003;-85
2023/08/02 09:29:01;;;;;;;17.20;16.50;;;17.80;21.40;;;;;;4908474;29;20466;-85
2023/08/02 09:31:31;;;;;;;17.93;16.93;;;17.90;24.80;;;;;;4905787;29;20461;-84
2023/08/02 09:34:03;;;;;;;18.00;17.20;;;17.90;12.70;;;;;;4904159;29;21105;-84
2023/08/02 09:37:19;;;;;;;17.30;16.40;;;18.00;10.20;;;;;;4907941;29;20489;-82
2023/08/02 09:39:51;;;;;;;17.13;16.40;;;17.90;9.40;;;;;;4907374;29;20479;-82
2023/08/02 09:42:24;;;;;;;17.50;16.70;;;18.00;16.60;;;;;;4905643;29;20556;-82
2023/08/02 09:44:56;;;;;;;17.50;16.80;;;18.10;5.10;;;;;;4903828;29;20477;-81
2023/08/02 09:47:26;;;;;;;18.00;17.13;;;18.00;7.70;;;;;;4906144;29;20507;-83
2023/08/02 09:50:05;;;;;;;17.50;16.70;;;18.10;11.90;;;;;;4907966;29;20454;-82
2023/08/02 09:52:41;;;;;;;17.80;17.00;;;18.10;20.00;;;;;;4905103;29;20496;-82
2023/08/02 09:55:12;;;;;;;18.30;17.50;;;18.20;18.20;;;;;;4900601;29;20552;-82
2023/08/02 09:57:44;;;;;;;18.00;17.17;;;18.20;19.70;;;;;;4901497;29;20462;-83
2023/08/02 10:00:18;;;;;;;17.83;17.03;;;18.10;18.00;;;;;;4902795;29;20998;-83
2023/08/02 10:02:48;;;;;;;18.70;17.70;;;18.20;9.30;;;;;;4905771;29;20466;-82
2023/08/02 10:05:17;;;;;;;18.00;17.10;;;18.20;3.60;;;;;;4906374;29;21209;-82
2023/08/02 10:07:47;;;;;;;18.00;17.20;;;18.30;1.00;;;;;;4906354;29;20481;-82
2023/08/02 10:10:21;;;;;;;18.33;17.53;;;18.30;1.00;;;;;;4905175;29;20468;-84
2023/08/02 10:12:53;;;;;;;18.17;17.37;;;18.30;1.00;;;;;;4904098;29;20875;-81
2023/08/02 10:15:30;;;;;;;18.73;17.50;;;18.40;6.70;;;;;;4904046;29;20477;-83
2023/08/02 10:18:01;;;;;;;19.30;18.00;;;18.30;21.90;;;;;;4904606;29;20553;-83
2023/08/02 10:20:31;;;;;;;18.00;17.20;;;18.20;22.00;;;;;;4905527;29;20556;-84
2023/08/02 10:23:07;;;;;;;18.50;17.57;;;18.10;36.80;;;;;;4903460;29;20490;-85
2023/08/02 10:25:37;;;;;;;17.97;17.07;;;18.20;25.20;;;;;;4904316;29;20445;-81
2023/08/02 10:28:05;;;;;;;18.40;17.40;;;18.20;26.50;;;;;;4905736;29;20480;-83
2023/08/02 10:30:36;;;;;;;18.40;17.40;;;18.20;11.30;;;;;;4907509;29;20611;-83
2023/08/02 10:33:13;;;;;;;19.00;18.00;;;18.20;11.20;;;;;;4905092;29;20860;-82
2023/08/02 10:35:59;;;;;;;19.00;17.90;;;18.20;23.60;;;;;;4902441;29;20477;-83
2023/08/02 10:38:28;;;;;;;17.97;17.17;;;18.30;11.50;;;;;;4904905;29;20455;-82
2023/08/02 10:41:04;;;;;;;19.27;18.27;;;18.40;1.00;;;;;;4900940;29;20470;-83
2023/08/02 10:44:14;;;;;;;18.20;17.30;;;18.50;1.00;;;;;;4904807;29;21134;-83
2023/08/02 10:46:47;;;;;;;17.60;16.80;;;18.50;1.00;;;;;;4903823;29;21146;-81
2023/08/02 10:49:41;;;;;;;18.37;17.57;;;18.60;1.00;;;;;;4903646;29;20468;-83
2023/08/02 10:52:29;;;;;;;18.30;17.50;;;18.60;1.00;;;;;;4904799;29;20508;-80
2023/08/02 10:55:14;;;;;;;17.70;16.80;;;18.80;1.00;;;;;;4903258;29;20477;-80
2023/08/02 10:58:06;;;;;;;17.83;17.03;;;19.00;1.00;;;;;;4901815;29;20487;-83
2023/08/02 11:00:37;;;;;;;17.73;16.93;;;19.30;1.00;;;;;;4902985;29;20447;-83
2023/08/02 11:03:07;;;;;;;19.53;18.30;;;19.40;1.00;;;;;;4903078;29;20475;-82
2023/08/02 11:05:43;;;;;;;18.07;17.27;;;19.40;1.00;;;;;;4902643;29;20463;-83
2023/08/02 11:08:12;;;;;;;18.60;17.70;;;19.40;1.00;;;;;;4903802;29;20470;-83
2023/08/02 11:10:50;;;;;;;18.20;17.40;;;19.50;1.00;;;;;;4905550;29;20518;-83
2023/08/02 11:13:24;;;;;;;18.30;17.40;;;19.50;1.00;;;;;;4904430;29;20490;-83
2023/08/02 11:16:13;;;;;;;18.03;17.13;;;19.50;1.00;;;;;;4902532;29;20576;-83
2023/08/02 11:18:45;;;;;;;18.37;17.57;;;19.50;1.00;;;;;;4906582;29;20462;-80
2023/08/02 11:21:15;;;;;;;17.93;17.07;;;19.50;1.00;;;;;;4905706;29;20465;-81
2023/08/02 11:23:43;;;;;;;18.77;17.87;;;19.40;1.00;;;;;;4906148;29;20482;-83
2023/08/02 11:26:20;;;;;;;18.37;17.47;;;19.50;1.00;;;;;;4903158;29;20514;-81
2023/08/02 11:28:52;;;;;;;19.30;18.20;;;19.50;1.00;;;;;;4905342;29;20541;-83
2023/08/02 11:31:23;;;;;;;17.83;17.07;;;19.60;1.00;;;;;;4903608;29;20557;-83
2023/08/02 11:33:54;;;;;;;17.60;16.80;;;19.70;1.00;;;;;;4906219;29;20477;-83
2023/08/02 11:36:33;;;;;;;18.80;17.90;;;19.80;1.00;;;;;;4905407;29;20521;-84
2023/08/02 11:39:03;;;;;;;19.97;18.87;;;20.00;1.00;;;;;;4903716;29;20477;-82
2023/08/02 11:41:31;;;;;;;18.90;17.80;;;20.20;1.00;;;;;;4899875;29;20490;-84
2023/08/02 11:43:59;;;;;;;18.33;17.33;;;20.30;1.00;;;;;;4902413;29;20516;-83
2023/08/02 11:46:31;;;;;;;18.30;17.27;;;20.40;99.90;;;;;;4905584;29;20451;-83
2023/08/02 11:49:07;;;;;;;17.87;17.07;;;20.50;1.00;;;;;;4904809;29;20542;-83
2023/08/02 11:51:43;;;;;;;19.50;18.50;;;20.60;1.00;;;;;;4904315;29;20947;-84
2023/08/02 11:54:13;;;;;;;19.53;18.47;;;20.70;99.90;;;;;;4903584;29;20506;-83
2023/08/02 11:56:45;;;;;;;18.97;18.07;;;20.80;99.90;;;;;;4902519;29;20849;-83
2023/08/02 11:59:16;;;;;;;19.47;18.57;;;20.80;99.90;;;;;;4903973;29;21622;-83
2023/08/02 12:01:48;;;;;;;18.87;18.00;;;20.90;24.00;;;;;;4903798;29;20465;-83
2023/08/02 12:04:18;;;;;;;17.80;17.10;;;20.90;99.90;;;;;;4906063;29;20481;-82
2023/08/02 12:06:50;;;;;;;18.87;17.80;;;20.90;99.90;;;;;;4905202;29;20455;-84
2023/08/02 12:09:19;;;;;;;18.60;17.60;;;20.90;99.90;;;;;;4904809;29;20466;-84
2023/08/02 12:11:56;;;;;;;18.50;17.60;;;21.00;1.00;;;;;;4901753;29;20482;-84
2023/08/02 12:14:28;;;;;;;18.53;17.73;;;21.10;99.90;;;;;;4902737;29;20560;-83
2023/08/02 12:16:57;;;;;;;18.07;17.27;;;21.20;39.90;;;;;;4903827;29;20482;-83
2023/08/02 12:19:41;;;;;;;19.30;18.30;;;21.20;1.00;;;;;;4904426;29;20466;-82
2023/08/02 12:22:15;;;;;;;18.50;17.50;;;21.30;99.90;;;;;;4905626;29;20477;-84
2023/08/02 12:24:44;;;;;;;19.10;18.13;;;21.40;1.00;;;;;;4905849;29;20515;-83
2023/08/02 12:27:16;;;;;;;19.00;18.00;;;21.40;99.90;;;;;;4908300;29;20514;-83
2023/08/02 12:29:49;;;;;;;17.90;17.20;;;21.40;1.00;;;;;;4909871;29;20508;-84
2023/08/02 12:32:27;;;;;;;19.03;18.07;;;21.50;1.00;;;;;;4907004;29;20457;-83
2023/08/02 12:35:05;;;;;;;18.17;17.47;;;21.60;1.00;;;;;;4908108;29;20499;-83
2023/08/02 12:37:40;;;;;;;18.70;17.80;;;21.60;1.00;;;;;;4907110;29;20496;-83
2023/08/02 12:40:12;;;;;;;18.03;17.33;;;21.60;99.90;;;;;;4915241;29;20457;-82
2023/08/02 12:42:40;;;;;;;18.90;18.10;;;21.60;99.90;;;;;;4909671;29;20470;-85
2023/08/02 12:45:26;;;;;;;18.73;17.63;;;21.60;99.90;;;;;;4906543;29;20457;-83
2023/08/02 12:47:55;;;;;;;17.80;17.10;;;21.60;1.00;;;;;;4907379;29;20458;-82
2023/08/02 12:50:25;;;;;;;17.53;16.83;;;21.60;1.00;;;;;;4906483;29;20455;-83
2023/08/02 12:52:55;;;;;;;18.20;17.30;;;21.60;1.00;;;;;;4904471;29;20457;-83
2023/08/02 12:55:24;;;;;;;20.13;18.93;;;21.70;1.00;;;;;;4909417;29;20554;-84
2023/08/02 12:57:53;;;;;;;18.23;17.43;;;21.60;1.00;;;;;;4906765;29;21022;-84
2023/08/02 13:00:30;;;;;;;17.67;16.97;;;21.70;1.00;;;;;;4906690;29;20468;-83
2023/08/02 13:03:01;;;;;;;18.90;17.80;;;21.70;99.90;;;;;;4904514;29;20469;-83
2023/08/02 13:05:34;;;;;;;18.13;17.33;;;21.80;99.90;;;;;;4903819;29;20466;-84
2023/08/02 13:08:05;;;;;;;17.90;17.03;;;21.80;1.00;;;;;;4905381;29;20456;-84
2023/08/02 13:10:33;;;;;;;17.83;17.13;;;21.80;1.00;;;;;;4906453;29;20467;-83
2023/08/02 13:13:02;;;;;;;17.97;17.27;;;21.80;1.00;;;;;;4905919;29;20737;-83
2023/08/02 13:15:32;;;;;;;18.10;17.40;;;21.80;1.00;;;;;;4906748;29;20473;-83
2023/08/02 13:18:03;;;;;;;21.03;17.37;;;21.70;21.40;;;;;;4906567;29;21123;-83
2023/08/02 13:20:32;;;;;;;18.17;17.43;;;21.70;34.60;;;;;;4906877;29;20456;-83
2023/08/02 13:23:01;;;;;;;18.17;17.47;;;21.70;1.00;;;;;;4905996;29;20527;-82
2023/08/02 13:25:33;;;;;;;17.60;16.87;;;21.70;1.00;;;;;;4904650;29;20546;-82
2023/08/02 13:28:02;;;;;;;17.57;16.87;;;21.70;93.30;;;;;;4904969;29;20496;-84
2023/08/02 13:30:30;;;;;;;17.63;16.93;;;21.70;1.00;;;;;;4907359;29;20948;-84
2023/08/02 13:32:58;;;;;;;17.20;16.50;;;21.70;1.00;;;;;;4908944;29;20464;-84
2023/08/02 13:35:27;;;;;;;17.47;16.67;;;21.70;1.00;;;;;;4903899;29;20626;-83
2023/08/02 13:37:55;;;;;;;17.40;16.70;;;21.80;1.00;;;;;;4905381;29;20484;-84
2023/08/02 13:40:25;;;;;;;17.30;16.60;;;21.80;99.90;;;;;;4906559;29;20470;-82
2023/08/02 13:42:54;;;;;;;17.57;16.77;;;21.80;99.90;;;;;;4911642;29;20464;-83
2023/08/02 13:45:22;;;;;;;17.37;16.70;;;21.90;99.90;;;;;;4905451;29;21055;-84
2023/08/02 13:47:51;;;;;;;16.93;16.33;;;21.90;99.90;;;;;;4905022;29;20536;-82
2023/08/02 13:50:19;;;;;;;16.80;16.10;;;22.00;1.00;;;;;;4904708;29;20539;-84
2023/08/02 13:52:47;;;;;;;16.73;16.13;;;22.10;99.90;;;;;;4900746;29;20453;-82